createdAt,value
2022-11-20T00:01:21.941Z,101489.25
2022-11-20T00:03:49.444Z,101492.00
2022-11-20T00:06:18.532Z,101496.41
2022-11-20T00:08:45.788Z,101495.31
2022-11-20T00:11:16.424Z,101498.25
2022-11-20T00:13:44.341Z,101500.88
2022-11-20T00:16:12.584Z,101501.66
2022-11-20T00:18:39.215Z,101496.94
2022-11-20T00:21:24.364Z,101505.38
2022-11-20T00:23:54.880Z,101503.63
2022-11-20T00:26:23.210Z,101500.00
2022-11-20T00:28:55.408Z,101491.00
2022-11-20T00:31:22.660Z,101492.00
2022-11-20T00:33:49.283Z,101498.56
2022-11-20T00:36:22.213Z,101496.03
2022-11-20T00:38:53.543Z,101491.22
2022-11-20T00:41:21.014Z,101492.44
2022-11-20T00:43:47.645Z,101493.31
2022-11-20T00:46:19.706Z,101493.19
2022-11-20T00:48:46.909Z,101485.81
2022-11-20T00:51:16.191Z,101492.84
2022-11-20T00:53:43.659Z,101478.06
2022-11-20T00:56:16.140Z,101487.47
2022-11-20T00:58:45.237Z,101486.38
2022-11-20T01:01:15.501Z,101473.34
2022-11-20T01:03:45.288Z,101472.88
2022-11-20T01:06:23.738Z,101453.78
2022-11-20T01:08:51.822Z,101461.03
2022-11-20T01:11:21.756Z,101464.44
2022-11-20T01:13:50.516Z,101465.19
2022-11-20T01:16:18.996Z,101460.16
2022-11-20T01:18:47.569Z,101463.00
2022-11-20T01:21:20.349Z,101457.56
2022-11-20T01:23:49.234Z,101456.22
2022-11-20T01:26:19.659Z,101453.91
2022-11-20T01:28:46.763Z,101449.41
2022-11-20T01:31:18.987Z,101450.94
2022-11-20T01:33:48.105Z,101438.78
2022-11-20T01:36:16.064Z,101443.94
2022-11-20T01:38:43.477Z,101448.09
2022-11-20T01:41:11.591Z,101429.69
2022-11-20T01:43:38.128Z,101423.72
2022-11-20T01:46:19.735Z,101441.06
2022-11-20T01:48:58.876Z,101433.94
2022-11-20T01:51:45.189Z,101438.97
2022-11-20T01:54:21.072Z,101434.47
2022-11-20T01:56:49.313Z,101434.00
2022-11-20T01:59:19.431Z,101439.28
2022-11-20T02:01:46.960Z,101428.34
2022-11-20T02:04:14.882Z,101427.00
2022-11-20T02:06:47.433Z,101436.53
2022-11-20T02:09:15.146Z,101429.53
2022-11-20T02:11:42.283Z,101429.41
2022-11-20T02:14:09.663Z,101425.03
2022-11-20T02:16:40.324Z,101421.59
2022-11-20T02:19:14.725Z,101422.72
2022-11-20T02:21:55.837Z,101430.50
2022-11-20T02:24:23.783Z,101422.84
2022-11-20T02:26:55.419Z,101441.47
2022-11-20T02:29:32.019Z,101431.06
2022-11-20T02:32:01.736Z,101438.84
2022-11-20T02:34:29.818Z,101424.78
2022-11-20T02:36:57.943Z,101421.91
2022-11-20T02:39:26.534Z,101427.94
2022-11-20T02:41:54.644Z,101426.22
2022-11-20T02:44:21.773Z,101420.06
2022-11-20T02:46:48.287Z,101412.50
2022-11-20T02:49:15.430Z,101411.84
2022-11-20T02:51:42.966Z,101416.00
2022-11-20T02:54:09.459Z,101405.47
2022-11-20T02:56:39.469Z,101417.53
2022-11-20T02:59:06.813Z,101406.72
2022-11-20T03:01:33.372Z,101417.13
2022-11-20T03:04:00.020Z,101407.25
2022-11-20T03:06:27.051Z,101407.78
2022-11-20T03:08:54.594Z,101408.44
2022-11-20T03:11:22.144Z,101405.25
2022-11-20T03:13:48.678Z,101394.41
2022-11-20T03:16:18.883Z,101399.22
2022-11-20T03:18:45.808Z,101397.47
2022-11-20T03:21:14.429Z,101383.66
2022-11-20T03:23:41.525Z,101375.69
2022-11-20T03:26:15.093Z,101367.31
2022-11-20T03:28:43.570Z,101380.06
2022-11-20T03:31:12.705Z,101381.91
2022-11-20T03:33:40.923Z,101378.53
2022-11-20T03:36:11.641Z,101376.03
2022-11-20T03:38:38.946Z,101370.00
2022-11-20T03:41:12.162Z,101366.50
2022-11-20T03:43:39.319Z,101371.94
2022-11-20T03:46:06.923Z,101370.59
2022-11-20T03:48:33.957Z,101350.56
2022-11-20T03:51:24.880Z,101359.00
2022-11-20T03:53:54.195Z,101369.84
2022-11-20T03:56:25.243Z,101362.28
2022-11-20T03:58:51.909Z,101361.31
2022-11-20T04:01:25.163Z,101358.56
2022-11-20T04:03:53.774Z,101350.88
2022-11-20T04:06:23.555Z,101355.63
2022-11-20T04:08:53.740Z,101348.94
2022-11-20T04:11:31.365Z,101346.75
2022-11-20T04:13:59.919Z,101336.91
2022-11-20T04:16:29.645Z,101335.13
2022-11-20T04:18:59.111Z,101333.25
2022-11-20T04:21:27.025Z,101334.13
2022-11-20T04:23:54.841Z,101329.41
2022-11-20T04:26:23.212Z,101329.81
2022-11-20T04:28:50.832Z,101334.97
2022-11-20T04:31:20.010Z,101345.00
2022-11-20T04:33:47.765Z,101335.44
2022-11-20T04:36:25.833Z,101330.72
2022-11-20T04:38:59.903Z,101328.72
2022-11-20T04:41:30.184Z,101349.44
2022-11-20T04:44:04.077Z,101340.78
2022-11-20T04:46:33.254Z,101345.91
2022-11-20T04:49:00.236Z,101323.44
2022-11-20T04:51:27.368Z,101311.09
2022-11-20T04:53:54.981Z,101328.72
2022-11-20T04:56:21.512Z,101323.03
2022-11-20T04:58:48.097Z,101325.38
2022-11-20T05:01:16.183Z,101322.06
2022-11-20T05:03:44.465Z,101324.84
2022-11-20T05:06:14.596Z,101338.53
2022-11-20T05:08:42.021Z,101328.97
2022-11-20T05:11:14.271Z,101328.88
2022-11-20T05:13:41.203Z,101324.69
2022-11-20T05:16:14.352Z,101326.34
2022-11-20T05:18:42.572Z,101331.72
2022-11-20T05:21:10.382Z,101338.84
2022-11-20T05:23:37.661Z,101319.53
2022-11-20T05:26:05.100Z,101330.72
2022-11-20T05:28:32.643Z,101313.16
2022-11-20T05:31:08.241Z,101306.06
2022-11-20T05:33:36.414Z,101302.22
2022-11-20T05:36:04.508Z,101291.19
2022-11-20T05:38:31.131Z,101288.22
2022-11-20T05:41:04.992Z,101278.28
2022-11-20T05:43:36.534Z,101286.94
2022-11-20T05:46:04.808Z,101298.53
2022-11-20T05:48:31.820Z,101278.59
2022-11-20T05:51:03.404Z,101315.50
2022-11-20T05:53:30.812Z,101307.91
2022-11-20T05:56:02.227Z,101304.75
2022-11-20T05:58:30.413Z,101301.56
2022-11-20T06:01:08.317Z,101311.63
2022-11-20T06:03:35.535Z,101312.47
2022-11-20T06:06:03.408Z,101315.00
2022-11-20T06:08:30.143Z,101309.84
2022-11-20T06:10:57.629Z,101313.25
2022-11-20T06:13:24.555Z,101315.78
2022-11-20T06:15:52.813Z,101320.69
2022-11-20T06:18:20.761Z,101323.94
2022-11-20T06:20:47.756Z,101325.06
2022-11-20T06:23:14.550Z,101323.19
2022-11-20T06:25:41.968Z,101312.78
2022-11-20T06:28:09.901Z,101328.34
2022-11-20T06:30:37.042Z,101321.34
2022-11-20T06:33:03.572Z,101318.03
2022-11-20T06:35:30.132Z,101313.00
2022-11-20T06:37:57.174Z,101315.78
2022-11-20T06:40:23.662Z,101310.28
2022-11-20T06:42:50.140Z,101327.22
2022-11-20T06:45:16.661Z,101318.16
2022-11-20T06:47:43.136Z,101318.03
2022-11-20T06:50:09.849Z,101305.25
2022-11-20T06:52:42.296Z,101317.97
2022-11-20T06:55:10.210Z,101315.81
2022-11-20T06:57:36.771Z,101301.25
2022-11-20T07:00:04.215Z,101291.81
2022-11-20T07:02:30.746Z,101293.91
2022-11-20T07:04:57.278Z,101296.53
2022-11-20T07:07:23.895Z,101295.16
2022-11-20T07:09:50.450Z,101290.00
2022-11-20T07:12:17.610Z,101290.22
2022-11-20T07:14:44.168Z,101296.34
2022-11-20T07:17:11.244Z,101295.25
2022-11-20T07:19:37.738Z,101293.97
2022-11-20T07:22:04.328Z,101287.41
2022-11-20T07:24:31.125Z,101287.19
2022-11-20T07:26:57.671Z,101286.56
2022-11-20T07:29:24.293Z,101274.50
2022-11-20T07:31:51.038Z,101273.41
2022-11-20T07:34:17.556Z,101264.44
2022-11-20T07:36:44.103Z,101264.22
2022-11-20T07:39:10.612Z,101272.25
2022-11-20T07:41:37.197Z,101260.41
2022-11-20T07:44:03.891Z,101266.09
2022-11-20T07:46:30.416Z,101271.47
2022-11-20T07:48:57.465Z,101276.81
2022-11-20T07:51:24.552Z,101276.06
2022-11-20T07:53:54.919Z,101271.34
2022-11-20T07:56:21.425Z,101268.19
2022-11-20T07:58:48.059Z,101258.34
2022-11-20T08:01:14.665Z,101279.34
2022-11-20T08:03:41.209Z,101274.50
2022-11-20T08:06:08.809Z,101267.72
2022-11-20T08:08:38.850Z,101269.25
2022-11-20T08:11:47.193Z,101265.25
2022-11-20T08:14:14.529Z,101260.94
2022-11-20T08:16:42.982Z,101250.31
2022-11-20T08:19:10.317Z,101251.16
2022-11-20T08:21:38.509Z,101241.25
2022-11-20T08:24:06.059Z,101238.00
2022-11-20T08:26:32.581Z,101238.28
2022-11-20T08:28:59.448Z,101241.81
2022-11-20T08:31:28.420Z,101230.47
2022-11-20T08:33:55.261Z,101232.66
2022-11-20T08:36:23.315Z,101242.47
2022-11-20T08:38:51.018Z,101242.09
2022-11-20T08:41:27.921Z,101237.06
2022-11-20T08:44:00.285Z,101246.78
2022-11-20T08:46:28.723Z,101244.34
2022-11-20T08:48:55.285Z,101238.81
2022-11-20T08:51:21.963Z,101234.91
2022-11-20T08:53:49.621Z,101236.13
2022-11-20T08:56:16.853Z,101235.84
2022-11-20T08:59:10.330Z,101241.53
2022-11-20T09:01:30.527Z,101229.25
2022-11-20T09:03:58.198Z,101230.00
2022-11-20T09:06:24.786Z,101230.00
2022-11-20T09:08:54.888Z,101226.78
2022-11-20T09:11:22.360Z,101211.81
2022-11-20T09:13:49.179Z,101218.78
2022-11-20T09:16:15.779Z,101215.09
2022-11-20T09:18:42.345Z,101210.59
2022-11-20T09:21:15.039Z,101203.13
2022-11-20T09:23:41.918Z,101209.75
2022-11-20T09:26:12.101Z,101215.34
2022-11-20T09:28:39.440Z,101206.09
2022-11-20T09:31:16.320Z,101200.56
2022-11-20T09:33:43.958Z,101195.50
2022-11-20T09:36:10.507Z,101200.41
2022-11-20T09:38:37.520Z,101190.91
2022-11-20T09:41:06.781Z,101177.06
2022-11-20T09:43:47.806Z,101175.78
2022-11-20T09:46:33.202Z,101167.84
2022-11-20T09:49:06.498Z,101168.22
2022-11-20T09:51:59.433Z,101157.41
2022-11-20T09:54:33.937Z,101172.41
2022-11-20T09:57:09.985Z,101166.50
2022-11-20T09:59:41.326Z,101161.00
2022-11-20T10:02:35.814Z,101151.84
2022-11-20T10:05:09.742Z,101151.50
2022-11-20T10:08:10.602Z,101162.94
2022-11-20T10:10:43.918Z,101156.72
2022-11-20T10:13:31.200Z,101146.00
2022-11-20T10:16:29.521Z,101152.59
2022-11-20T10:19:14.904Z,101141.84
2022-11-20T10:21:53.552Z,101150.25
2022-11-20T10:24:49.157Z,101150.03
2022-11-20T10:27:24.600Z,101144.47
2022-11-20T10:30:11.733Z,101141.47
2022-11-20T10:32:48.798Z,101129.75
2022-11-20T10:35:15.294Z,101132.94
2022-11-20T10:37:57.574Z,101112.75
2022-11-20T10:40:32.128Z,101113.94
2022-11-20T10:43:03.954Z,101108.63
2022-11-20T10:46:09.574Z,101105.88
2022-11-20T10:48:45.520Z,101101.66
2022-11-20T10:51:30.856Z,101098.91
2022-11-20T10:54:23.305Z,101094.81
2022-11-20T10:56:53.641Z,101083.53
2022-11-20T11:00:00.783Z,101078.69
2022-11-20T11:02:45.269Z,101063.41
2022-11-20T11:05:23.453Z,101062.59
2022-11-20T11:07:54.368Z,101070.38
2022-11-20T11:10:39.570Z,101051.03
2022-11-20T11:13:06.154Z,101064.50
2022-11-20T11:15:41.498Z,101061.31
2022-11-20T11:18:12.145Z,101048.31
2022-11-20T11:20:39.312Z,101055.97
2022-11-20T11:23:05.977Z,101043.53
2022-11-20T11:25:37.204Z,101043.47
2022-11-20T11:28:27.062Z,101032.13
2022-11-20T11:30:53.731Z,101031.63
2022-11-20T11:33:31.760Z,101022.13
2022-11-20T11:36:04.589Z,101016.91
2022-11-20T11:38:45.003Z,101018.09
2022-11-20T11:41:20.468Z,101025.13
2022-11-20T11:44:14.936Z,101008.88
2022-11-20T11:46:50.362Z,101017.66
2022-11-20T11:49:21.352Z,101008.28
2022-11-20T11:52:17.326Z,101006.25
2022-11-20T11:54:54.770Z,100995.78
2022-11-20T11:57:24.366Z,100995.47
2022-11-20T12:00:09.177Z,100984.59
2022-11-20T12:02:49.319Z,100976.16
2022-11-20T12:05:22.471Z,100966.09
2022-11-20T12:07:57.664Z,100970.16
2022-11-20T12:10:52.756Z,100961.88
2022-11-20T12:13:23.541Z,100962.19
2022-11-20T12:15:51.008Z,100951.03
2022-11-20T12:18:21.661Z,100950.34
2022-11-20T12:21:36.238Z,100956.69
2022-11-20T12:24:11.109Z,100940.41
2022-11-20T12:26:46.789Z,100944.06
2022-11-20T12:29:34.328Z,100930.47
2022-11-20T12:32:03.771Z,100934.91
2022-11-20T12:34:49.648Z,100921.22
2022-11-20T12:37:41.638Z,100915.41
2022-11-20T12:40:37.209Z,100909.94
2022-11-20T12:43:41.226Z,100904.72
2022-11-20T12:46:13.805Z,100907.75
2022-11-20T12:48:51.690Z,100906.00
2022-11-20T12:51:31.814Z,100896.75
2022-11-20T12:54:25.861Z,100892.84
2022-11-20T12:57:10.565Z,100886.78
2022-11-20T13:00:16.790Z,100870.72
2022-11-20T13:02:52.452Z,100859.84
2022-11-20T13:05:20.930Z,100849.63
2022-11-20T13:07:48.909Z,100852.16
2022-11-20T13:10:26.737Z,100846.72
2022-11-20T13:13:03.761Z,100847.09
2022-11-20T13:16:06.200Z,100850.50
2022-11-20T13:18:40.490Z,100831.66
2022-11-20T13:21:18.798Z,100816.31
2022-11-20T13:23:45.392Z,100819.00
2022-11-20T13:26:19.147Z,100810.44
2022-11-20T13:28:47.662Z,100802.88
2022-11-20T13:31:47.411Z,100800.91
2022-11-20T13:34:25.550Z,100789.38
2022-11-20T13:36:55.324Z,100788.59
2022-11-20T13:39:29.981Z,100782.97
2022-11-20T13:42:19.933Z,100791.66
2022-11-20T13:44:54.880Z,100787.38
2022-11-20T13:47:26.989Z,100786.53
2022-11-20T13:49:56.312Z,100786.56
2022-11-20T13:52:31.935Z,100796.00
2022-11-20T13:54:58.927Z,100790.25
2022-11-20T13:57:43.731Z,100775.22
2022-11-20T14:00:22.315Z,100760.75
2022-11-20T14:03:15.752Z,100769.59
2022-11-20T14:05:52.276Z,100749.00
2022-11-20T14:08:28.248Z,100742.97
2022-11-20T14:11:13.772Z,100746.44
2022-11-20T14:13:40.634Z,100744.97
2022-11-20T14:16:07.214Z,100739.88
2022-11-20T14:18:33.758Z,100735.81
2022-11-20T14:21:04.740Z,100734.06
2022-11-20T14:23:31.447Z,100729.59
2022-11-20T14:25:58.604Z,100741.75
2022-11-20T14:28:30.562Z,100732.41
2022-11-20T14:30:58.099Z,100723.88
2022-11-20T14:33:27.425Z,100710.31
2022-11-20T14:35:57.051Z,100704.00
2022-11-20T14:38:27.802Z,100710.75
2022-11-20T14:40:54.965Z,100698.16
2022-11-20T14:43:25.859Z,100697.22
2022-11-20T14:46:04.836Z,100683.47
2022-11-20T14:48:54.795Z,100680.84
2022-11-20T14:51:29.243Z,100679.16
2022-11-20T14:53:55.855Z,100673.31
2022-11-20T14:56:25.666Z,100655.41
2022-11-20T14:58:59.905Z,100673.13
2022-11-20T15:01:28.626Z,100667.94
2022-11-20T15:04:11.959Z,100671.34
2022-11-20T15:06:49.576Z,100666.19
2022-11-20T15:09:17.020Z,100656.09
2022-11-20T15:11:55.207Z,100656.88
2022-11-20T15:14:22.731Z,100667.13
2022-11-20T15:16:50.221Z,100669.38
2022-11-20T15:19:24.475Z,100664.41
2022-11-20T15:21:51.611Z,100654.13
2022-11-20T15:24:18.974Z,100642.28
2022-11-20T15:26:45.972Z,100650.75
2022-11-20T15:29:15.252Z,100638.72
2022-11-20T15:31:44.396Z,100650.72
2022-11-20T15:34:16.319Z,100642.09
2022-11-20T15:36:44.101Z,100642.94
2022-11-20T15:39:11.121Z,100618.03
2022-11-20T15:41:38.279Z,100626.09
2022-11-20T15:44:06.097Z,100632.78
2022-11-20T15:46:39.386Z,100626.66
2022-11-20T15:49:07.149Z,100631.06
2022-11-20T15:51:37.608Z,100624.22
2022-11-20T15:54:16.031Z,100613.88
2022-11-20T15:56:45.394Z,100621.66
2022-11-20T15:59:12.496Z,100615.94
2022-11-20T16:01:39.208Z,100607.19
2022-11-20T16:04:09.855Z,100602.97
2022-11-20T16:06:36.362Z,100597.84
2022-11-20T16:09:03.135Z,100598.72
2022-11-20T16:11:29.627Z,100598.84
2022-11-20T16:14:15.097Z,100603.81
2022-11-20T16:16:42.823Z,100596.44
2022-11-20T16:19:15.413Z,100593.88
2022-11-20T16:21:42.653Z,100584.50
2022-11-20T16:24:13.635Z,100583.00
2022-11-20T16:26:41.533Z,100566.72
2022-11-20T16:29:08.372Z,100578.88
2022-11-20T16:31:35.098Z,100571.31
2022-11-20T16:34:11.531Z,100568.84
2022-11-20T16:36:41.349Z,100570.13
2022-11-20T16:39:07.970Z,100568.34
2022-11-20T16:41:35.348Z,100565.06
2022-11-20T16:44:06.741Z,100565.97
2022-11-20T16:46:33.857Z,100553.88
2022-11-20T16:49:02.652Z,100568.38
2022-11-20T16:51:31.730Z,100559.81
2022-11-20T16:54:01.668Z,100555.56
2022-11-20T16:56:28.923Z,100547.81
2022-11-20T16:58:58.672Z,100543.53
2022-11-20T17:01:27.107Z,100539.31
2022-11-20T17:03:56.641Z,100534.22
2022-11-20T17:06:27.447Z,100545.50
2022-11-20T17:08:55.845Z,100529.28
2022-11-20T17:11:23.228Z,100518.28
2022-11-20T17:13:50.352Z,100515.81
2022-11-20T17:16:22.690Z,100512.59
2022-11-20T17:18:51.991Z,100501.25
2022-11-20T17:21:20.241Z,100515.75
2022-11-20T17:23:47.620Z,100515.00
2022-11-20T17:26:22.562Z,100514.25
2022-11-20T17:29:19.300Z,100513.44
2022-11-20T17:31:46.369Z,100516.84
2022-11-20T17:34:14.661Z,100517.72
2022-11-20T17:36:45.551Z,100505.72
2022-11-20T17:39:17.447Z,100497.22
2022-11-20T17:41:44.291Z,100504.13
2022-11-20T17:44:12.409Z,100504.22
2022-11-20T17:46:38.984Z,100506.63
2022-11-20T17:49:05.675Z,100508.59
2022-11-20T17:51:35.191Z,100511.19
2022-11-20T17:54:04.310Z,100499.00
2022-11-20T17:56:51.068Z,100508.59
2022-11-20T17:59:18.859Z,100513.00
2022-11-20T18:01:46.248Z,100506.84
2022-11-20T18:04:13.333Z,100510.38
2022-11-20T18:06:41.262Z,100511.19
2022-11-20T18:09:08.261Z,100515.34
2022-11-20T18:11:37.884Z,100504.22
2022-11-20T18:14:25.898Z,100513.72
2022-11-20T18:16:55.142Z,100519.63
2022-11-20T18:19:32.213Z,100501.53
2022-11-20T18:22:01.779Z,100498.31
2022-11-20T18:24:28.910Z,100495.81
2022-11-20T18:26:55.649Z,100498.44
2022-11-20T18:29:22.569Z,100495.00
2022-11-20T18:31:50.131Z,100486.41
2022-11-20T18:34:16.805Z,100497.53
2022-11-20T18:36:43.540Z,100488.09
2022-11-20T18:39:12.276Z,100508.63
2022-11-20T18:41:58.354Z,100509.53
2022-11-20T18:44:48.668Z,100524.72
2022-11-20T18:47:19.005Z,100529.78
2022-11-20T18:49:52.803Z,100526.09
2022-11-20T18:52:21.471Z,100531.31
2022-11-20T18:54:48.760Z,100541.69
2022-11-20T18:57:25.777Z,100533.94
2022-11-20T18:59:53.727Z,100527.31
2022-11-20T19:02:21.873Z,100527.25
2022-11-20T19:04:48.721Z,100532.41
2022-11-20T19:07:16.255Z,100528.25
2022-11-20T19:09:45.378Z,100530.81
2022-11-20T19:12:12.672Z,100534.94
2022-11-20T19:14:39.909Z,100532.50
2022-11-20T19:17:07.729Z,100536.84
2022-11-20T19:19:35.718Z,100532.69
2022-11-20T19:22:02.605Z,100528.41
2022-11-20T19:24:30.767Z,100518.34
2022-11-20T19:26:57.392Z,100520.78
2022-11-20T19:29:25.205Z,100518.28
2022-11-20T19:31:53.318Z,100521.50
2022-11-20T19:34:20.917Z,100516.50
2022-11-20T19:36:47.499Z,100522.50
2022-11-20T19:39:14.194Z,100521.59
2022-11-20T19:41:41.936Z,100513.72
2022-11-20T19:44:11.350Z,100498.31
2022-11-20T19:46:39.173Z,100514.81
2022-11-20T19:49:09.369Z,100507.91
2022-11-20T19:51:37.785Z,100513.88
2022-11-20T19:54:05.480Z,100512.94
2022-11-20T19:56:33.297Z,100518.25
2022-11-20T19:59:00.271Z,100516.44
2022-11-20T20:01:31.921Z,100514.88
2022-11-20T20:04:05.454Z,100505.31
2022-11-20T20:06:34.121Z,100516.50
2022-11-20T20:09:12.616Z,100507.91
2022-11-20T20:11:40.393Z,100512.16
2022-11-20T20:14:10.361Z,100512.09
2022-11-20T20:16:37.329Z,100518.69
2022-11-20T20:19:05.181Z,100526.16
2022-11-20T20:21:33.889Z,100532.09
2022-11-20T20:24:01.229Z,100529.50
2022-11-20T20:26:31.419Z,100529.38
2022-11-20T20:28:58.605Z,100530.13
2022-11-20T20:31:27.391Z,100533.69
2022-11-20T20:33:54.475Z,100533.38
2022-11-20T20:36:22.870Z,100535.13
2022-11-20T20:38:56.519Z,100534.06
2022-11-20T20:41:25.124Z,100528.88
2022-11-20T20:44:11.015Z,100534.63
2022-11-20T20:46:37.696Z,100542.19
2022-11-20T20:49:04.984Z,100544.72
2022-11-20T20:51:32.075Z,100558.44
2022-11-20T20:53:59.414Z,100547.22
2022-11-20T20:56:26.522Z,100541.16
2022-11-20T20:58:53.074Z,100552.25
2022-11-20T21:01:20.934Z,100553.00
2022-11-20T21:03:48.203Z,100555.66
2022-11-20T21:06:14.841Z,100552.16
2022-11-20T21:08:44.111Z,100552.81
2022-11-20T21:11:13.776Z,100556.31
2022-11-20T21:13:43.015Z,100562.34
2022-11-20T21:16:10.630Z,100552.06
2022-11-20T21:18:37.568Z,100553.78
2022-11-20T21:21:24.873Z,100559.00
2022-11-20T21:23:53.359Z,100555.41
2022-11-20T21:26:20.855Z,100557.06
2022-11-20T21:28:47.939Z,100574.19
2022-11-20T21:31:16.930Z,100575.22
2022-11-20T21:33:45.453Z,100581.13
2022-11-20T21:36:15.034Z,100590.41
2022-11-20T21:38:41.774Z,100592.03
2022-11-20T21:41:10.333Z,100586.19
2022-11-20T21:43:37.638Z,100585.34
2022-11-20T21:46:13.261Z,100592.28
2022-11-20T21:48:41.672Z,100592.28
2022-11-20T21:51:14.616Z,100595.69
2022-11-20T21:53:42.567Z,100602.31
2022-11-20T21:56:10.337Z,100601.34
2022-11-20T21:58:38.665Z,100605.69
2022-11-20T22:01:17.356Z,100594.75
2022-11-20T22:03:51.319Z,100603.31
2022-11-20T22:06:19.138Z,100610.19
2022-11-20T22:08:46.188Z,100616.94
2022-11-20T22:11:15.010Z,100625.50
2022-11-20T22:14:00.757Z,100626.09
2022-11-20T22:16:27.925Z,100639.81
2022-11-20T22:18:56.404Z,100620.16
2022-11-20T22:21:25.428Z,100637.25
2022-11-20T22:23:52.509Z,100635.50
2022-11-20T22:26:24.326Z,100626.09
2022-11-20T22:28:53.164Z,100624.41
2022-11-20T22:31:21.285Z,100637.13
2022-11-20T22:33:48.091Z,100632.00
2022-11-20T22:36:17.602Z,100628.63
2022-11-20T22:38:44.751Z,100631.06
2022-11-20T22:41:18.326Z,100626.59
2022-11-20T22:43:46.542Z,100639.22
2022-11-20T22:46:18.806Z,100656.34
2022-11-20T22:48:50.717Z,100657.34
2022-11-20T22:51:20.326Z,100661.59
2022-11-20T22:53:47.579Z,100659.13
2022-11-20T22:56:15.019Z,100658.28
2022-11-20T22:58:44.528Z,100672.84
2022-11-20T23:01:17.190Z,100666.88
2022-11-20T23:03:46.216Z,100662.53
2022-11-20T23:06:13.476Z,100665.75
2022-11-20T23:08:41.671Z,100668.09
2022-11-20T23:11:11.695Z,100674.94
2022-11-20T23:13:39.644Z,100674.25
2022-11-20T23:16:17.176Z,100677.72
2022-11-20T23:18:44.188Z,100675.19
2022-11-20T23:21:16.241Z,100675.19
2022-11-20T23:23:44.005Z,100681.81
2022-11-20T23:26:12.762Z,100673.19
2022-11-20T23:28:40.917Z,100681.81
2022-11-20T23:31:08.443Z,100670.78
2022-11-20T23:33:36.246Z,100673.31
2022-11-20T23:36:03.515Z,100670.53
2022-11-20T23:38:30.685Z,100669.66
2022-11-20T23:40:57.320Z,100671.53
2022-11-20T23:43:24.344Z,100663.56
2022-11-20T23:45:56.175Z,100664.41
2022-11-20T23:48:25.471Z,100669.47
2022-11-20T23:50:52.493Z,100671.19
2022-11-20T23:53:19.829Z,100669.22
2022-11-20T23:55:48.477Z,100668.41
2022-11-20T23:58:16.013Z,100670.81
